createdAt,value
2023-05-05T00:00:30.462Z,14.02
2023-05-05T00:03:01.236Z,14.38
2023-05-05T00:05:32.699Z,16.75
2023-05-05T00:08:03.801Z,16.55
2023-05-05T00:10:34.654Z,15.95
2023-05-05T00:13:08.127Z,18.05
2023-05-05T00:15:39.078Z,16.98
2023-05-05T00:18:09.762Z,15.32
2023-05-05T00:20:40.637Z,13.98
2023-05-05T00:23:11.520Z,19.98
2023-05-05T00:25:42.582Z,16.10
2023-05-05T00:28:16.206Z,16.05
2023-05-05T00:30:47.271Z,13.32
2023-05-05T00:33:18.270Z,15.00
2023-05-05T00:35:50.400Z,17.63
2023-05-05T00:38:21.140Z,15.05
2023-05-05T00:40:51.994Z,24.42
2023-05-05T00:43:25.307Z,15.55
2023-05-05T00:46:02.211Z,14.00
2023-05-05T00:48:33.720Z,15.25
2023-05-05T00:51:09.028Z,15.55
2023-05-05T00:53:41.706Z,14.63
2023-05-05T00:56:13.201Z,14.40
2023-05-05T00:58:47.398Z,17.90
2023-05-05T01:01:18.545Z,17.77
2023-05-05T01:03:49.341Z,15.05
2023-05-05T01:06:35.753Z,18.33
2023-05-05T01:09:14.984Z,13.75
2023-05-05T01:11:52.953Z,15.18
2023-05-05T01:14:35.469Z,18.27
2023-05-05T01:17:17.493Z,13.73
2023-05-05T01:20:11.579Z,17.83
2023-05-05T01:22:48.458Z,20.60
2023-05-05T01:25:43.258Z,15.55
2023-05-05T01:28:31.170Z,15.38
2023-05-05T01:31:26.857Z,17.60
2023-05-05T01:34:07.426Z,16.63
2023-05-05T01:36:42.611Z,15.82
2023-05-05T01:39:18.800Z,18.88
2023-05-05T01:41:52.372Z,15.73
2023-05-05T01:44:23.405Z,20.15
2023-05-05T01:46:56.391Z,19.88
2023-05-05T01:49:30.620Z,18.48
2023-05-05T01:52:04.067Z,15.40
2023-05-05T01:54:37.819Z,14.85
2023-05-05T01:57:10.629Z,16.98
2023-05-05T01:59:42.824Z,14.70
2023-05-05T02:02:16.522Z,15.30
2023-05-05T02:04:52.265Z,18.00
2023-05-05T02:07:23.953Z,16.50
2023-05-05T02:09:56.144Z,16.63
2023-05-05T02:12:26.953Z,20.70
2023-05-05T02:15:00.923Z,18.63
2023-05-05T02:17:33.289Z,15.43
2023-05-05T02:20:07.984Z,15.48
2023-05-05T02:22:38.880Z,14.50
2023-05-05T02:25:11.043Z,15.73
2023-05-05T02:27:46.229Z,16.40
2023-05-05T02:30:20.025Z,27.35
2023-05-05T02:32:56.672Z,28.20
2023-05-05T02:35:38.836Z,22.70
2023-05-05T02:38:17.647Z,20.10
2023-05-05T02:40:53.378Z,16.30
2023-05-05T02:43:27.846Z,17.70
2023-05-05T02:45:59.401Z,25.55
2023-05-05T02:48:32.031Z,20.63
2023-05-05T02:51:08.576Z,33.63
2023-05-05T02:53:42.128Z,27.25
2023-05-05T02:56:25.653Z,18.73
2023-05-05T02:59:12.865Z,16.30
2023-05-05T03:01:58.002Z,23.45
2023-05-05T03:04:38.173Z,18.70
2023-05-05T03:07:16.381Z,16.23
2023-05-05T03:09:59.186Z,16.77
2023-05-05T03:12:36.829Z,19.13
2023-05-05T03:15:18.612Z,17.15
2023-05-05T03:17:50.341Z,17.45
2023-05-05T03:20:21.591Z,20.45
2023-05-05T03:22:56.565Z,24.77
2023-05-05T03:25:44.835Z,18.45
2023-05-05T03:28:21.622Z,21.77
2023-05-05T03:30:52.337Z,16.80
2023-05-05T03:33:23.354Z,43.90
2023-05-05T03:35:54.802Z,20.40
2023-05-05T03:38:28.172Z,27.65
2023-05-05T03:40:59.092Z,23.25
2023-05-05T03:43:30.296Z,19.80
2023-05-05T03:46:01.722Z,37.65
2023-05-05T03:48:32.673Z,24.27
2023-05-05T03:51:03.536Z,20.95
2023-05-05T03:53:39.213Z,25.52
2023-05-05T03:56:11.918Z,24.60
2023-05-05T03:58:42.677Z,27.75
2023-05-05T04:01:13.449Z,31.13
2023-05-05T04:03:44.233Z,19.30
2023-05-05T04:06:15.043Z,30.15
2023-05-05T04:08:48.436Z,23.10
2023-05-05T04:11:19.205Z,25.88
2023-05-05T04:13:50.322Z,23.25
2023-05-05T04:16:22.526Z,24.02
2023-05-05T04:18:53.450Z,36.17
2023-05-05T04:21:24.039Z,21.15
2023-05-05T04:23:58.132Z,22.30
2023-05-05T04:26:29.529Z,28.95
2023-05-05T04:29:00.912Z,26.05
2023-05-05T04:31:32.441Z,32.30
2023-05-05T04:34:03.766Z,26.38
2023-05-05T04:36:34.367Z,17.08
2023-05-05T04:39:07.826Z,24.10
2023-05-05T04:41:40.072Z,24.92
2023-05-05T04:44:11.639Z,26.27
2023-05-05T04:46:42.481Z,22.63
2023-05-05T04:49:13.249Z,17.25
2023-05-05T04:51:45.108Z,28.70
2023-05-05T04:54:18.490Z,35.25
2023-05-05T04:56:49.077Z,69.40
2023-05-05T04:59:19.949Z,32.05
2023-05-05T05:01:50.692Z,27.30
2023-05-05T05:04:22.065Z,30.60
2023-05-05T05:06:53.045Z,23.83
2023-05-05T05:09:26.351Z,31.45
2023-05-05T05:11:58.031Z,22.67
2023-05-05T05:14:29.183Z,27.35
2023-05-05T05:16:59.817Z,27.85
2023-05-05T05:19:30.550Z,22.52
2023-05-05T05:22:01.268Z,28.13
2023-05-05T05:24:36.637Z,20.77
2023-05-05T05:27:09.968Z,18.42
2023-05-05T05:29:43.936Z,31.40
2023-05-05T05:32:14.792Z,37.90
2023-05-05T05:34:45.896Z,16.77
2023-05-05T05:37:17.046Z,18.85
2023-05-05T05:39:54.830Z,16.23
2023-05-05T05:42:27.148Z,12.73
2023-05-05T05:44:58.990Z,22.55
2023-05-05T05:47:30.084Z,25.00
2023-05-05T05:50:01.807Z,15.98
2023-05-05T05:52:33.382Z,14.05
2023-05-05T05:55:07.598Z,12.52
2023-05-05T05:57:38.563Z,16.58
2023-05-05T06:00:12.896Z,15.10
2023-05-05T06:02:45.579Z,23.57
2023-05-05T06:05:20.127Z,21.55
2023-05-05T06:07:53.254Z,14.50
2023-05-05T06:10:28.715Z,14.73
2023-05-05T06:13:09.869Z,16.15
2023-05-05T06:15:44.871Z,22.40
2023-05-05T06:18:17.446Z,15.55
2023-05-05T06:20:48.200Z,17.00
2023-05-05T06:23:19.258Z,18.65
2023-05-05T06:25:58.233Z,48.65
2023-05-05T06:28:28.966Z,22.25
2023-05-05T06:30:59.701Z,18.13
2023-05-05T06:33:30.407Z,18.83
2023-05-05T06:36:01.005Z,20.48
2023-05-05T06:38:31.717Z,16.45
2023-05-05T06:41:05.015Z,26.90
2023-05-05T06:43:36.001Z,16.23
2023-05-05T06:48:41.914Z,9.70
2023-05-05T06:51:12.960Z,11.20
2023-05-05T06:53:43.611Z,14.10
2023-05-05T06:56:16.859Z,11.93
2023-05-05T06:58:47.503Z,10.98
2023-05-05T07:01:18.168Z,12.05
2023-05-05T07:03:49.176Z,13.15
2023-05-05T07:06:19.773Z,10.05
2023-05-05T07:08:50.585Z,13.02
2023-05-05T07:11:23.762Z,9.30
2023-05-05T07:13:54.389Z,13.32
2023-05-05T07:16:25.154Z,11.80
2023-05-05T07:18:55.867Z,16.17
2023-05-05T07:21:26.961Z,11.98
2023-05-05T07:23:57.640Z,8.40
2023-05-05T07:26:30.933Z,7.95
2023-05-05T07:29:01.885Z,8.07
2023-05-05T07:31:32.577Z,10.25
2023-05-05T07:34:03.205Z,7.53
2023-05-05T07:36:33.814Z,10.95
2023-05-05T07:39:04.392Z,8.25
2023-05-05T07:41:37.725Z,11.13
2023-05-05T07:44:08.589Z,9.30
2023-05-05T07:46:39.270Z,8.00
2023-05-05T07:49:09.905Z,7.18
2023-05-05T07:51:40.830Z,6.13
2023-05-05T07:54:11.706Z,8.20
2023-05-05T07:56:45.051Z,9.68
2023-05-05T07:59:15.801Z,10.35
2023-05-05T08:01:46.613Z,5.78
2023-05-05T08:04:17.305Z,5.78
2023-05-05T08:06:48.052Z,7.30
2023-05-05T08:09:18.690Z,8.02
2023-05-05T08:11:52.041Z,8.27
2023-05-05T08:14:22.698Z,6.93
2023-05-05T08:16:53.426Z,5.72
2023-05-05T08:19:28.935Z,6.53
2023-05-05T08:22:01.603Z,7.82
2023-05-05T08:24:32.422Z,6.88
2023-05-05T08:27:05.799Z,4.68
2023-05-05T08:29:36.372Z,7.68
2023-05-05T08:32:07.331Z,7.32
2023-05-05T08:34:37.980Z,6.32
2023-05-05T08:37:08.728Z,7.13
2023-05-05T08:39:39.417Z,4.72
2023-05-05T08:42:19.632Z,7.07
2023-05-05T08:44:58.824Z,6.38
2023-05-05T08:47:30.429Z,7.00
2023-05-05T08:50:03.488Z,6.90
2023-05-05T08:52:41.565Z,6.05
2023-05-05T08:55:18.418Z,5.85
2023-05-05T08:57:55.233Z,6.20
2023-05-05T09:00:27.472Z,6.88
2023-05-05T09:03:00.431Z,5.05
2023-05-05T09:05:31.504Z,10.73
2023-05-05T09:08:02.699Z,7.35
2023-05-05T09:10:35.172Z,4.95
2023-05-05T09:13:10.430Z,7.30
2023-05-05T09:18:13.477Z,6.65
2023-05-05T09:20:44.708Z,10.07
2023-05-05T09:23:17.036Z,10.45
2023-05-05T09:25:50.014Z,6.78
2023-05-05T09:28:23.393Z,5.63
2023-05-05T09:30:54.128Z,4.20
2023-05-05T09:33:33.170Z,6.70
2023-05-05T09:36:03.873Z,7.38
2023-05-05T09:38:34.777Z,5.57
2023-05-05T09:41:05.690Z,8.55
2023-05-05T09:43:54.744Z,9.10
2023-05-05T09:46:27.786Z,5.60
2023-05-05T09:48:58.682Z,7.47
2023-05-05T09:51:32.429Z,4.40
2023-05-05T09:54:03.187Z,15.88
2023-05-05T09:56:43.676Z,3.72
2023-05-05T09:59:17.090Z,3.53
2023-05-05T10:01:49.085Z,4.28
2023-05-05T10:04:28.533Z,6.20
2023-05-05T10:07:00.627Z,11.73
2023-05-05T10:09:32.045Z,4.80
2023-05-05T10:12:03.733Z,4.88
2023-05-05T10:14:38.959Z,5.88
2023-05-05T10:19:42.551Z,3.95
2023-05-05T10:22:13.933Z,3.83
2023-05-05T10:24:50.595Z,4.78
2023-05-05T10:27:23.650Z,6.10
2023-05-05T10:30:08.954Z,8.30
2023-05-05T10:32:59.337Z,7.32
2023-05-05T10:35:38.820Z,6.70
2023-05-05T10:38:11.908Z,6.32
2023-05-05T10:40:46.968Z,5.15
2023-05-05T10:43:18.325Z,6.88
2023-05-05T10:45:52.310Z,4.70
2023-05-05T10:48:30.853Z,6.70
2023-05-05T10:51:09.048Z,5.53
2023-05-05T10:53:45.898Z,5.50
2023-05-05T10:56:26.880Z,5.03
2023-05-05T10:59:00.228Z,5.93
2023-05-05T11:01:36.763Z,6.55
2023-05-05T11:04:22.018Z,14.02
2023-05-05T11:07:24.440Z,6.13
2023-05-05T11:10:02.284Z,6.10
2023-05-05T11:13:11.965Z,3.78
2023-05-05T11:15:42.884Z,7.77
2023-05-05T11:18:36.599Z,4.05
2023-05-05T11:21:18.445Z,11.00
2023-05-05T11:23:51.160Z,3.83
2023-05-05T11:26:42.565Z,10.50
2023-05-05T11:29:15.804Z,5.00
2023-05-05T11:31:48.162Z,11.32
2023-05-05T11:34:30.055Z,6.70
2023-05-05T11:37:04.684Z,7.50
2023-05-05T11:39:54.225Z,7.93
2023-05-05T11:42:27.782Z,5.40
2023-05-05T11:45:01.525Z,4.43
2023-05-05T11:47:36.614Z,6.80
2023-05-05T11:50:23.692Z,9.02
2023-05-05T11:52:54.397Z,4.63
2023-05-05T11:55:25.552Z,4.45
2023-05-05T11:57:56.598Z,5.75
2023-05-05T12:00:39.130Z,7.13
2023-05-05T12:03:09.881Z,11.85
2023-05-05T12:05:40.803Z,7.70
2023-05-05T12:08:11.982Z,6.43
2023-05-05T12:10:42.783Z,7.80
2023-05-05T12:13:21.750Z,7.68
2023-05-05T12:15:55.182Z,8.27
2023-05-05T12:18:25.890Z,8.50
2023-05-05T12:20:56.750Z,7.20
2023-05-05T12:23:30.371Z,9.55
2023-05-05T12:26:01.272Z,20.17
2023-05-05T12:28:46.995Z,11.30
2023-05-05T12:33:51.689Z,10.05
2023-05-05T12:36:22.634Z,9.70
2023-05-05T12:38:53.347Z,9.73
2023-05-05T12:41:24.323Z,20.65
2023-05-05T12:43:59.353Z,16.13
2023-05-05T12:46:32.888Z,9.90
2023-05-05T12:49:05.595Z,8.25
2023-05-05T12:51:37.751Z,11.27
2023-05-05T12:54:10.111Z,14.75
2023-05-05T12:56:42.376Z,10.95
2023-05-05T12:59:14.632Z,8.15
2023-05-05T13:01:55.394Z,12.18
2023-05-05T13:04:27.618Z,16.25
2023-05-05T13:07:14.505Z,11.15
2023-05-05T13:09:45.754Z,9.63
2023-05-05T13:12:16.791Z,13.73
2023-05-05T13:14:48.038Z,17.35
2023-05-05T13:17:21.423Z,15.32
2023-05-05T13:19:52.492Z,10.30
2023-05-05T13:22:23.299Z,10.25
2023-05-05T13:24:54.095Z,8.73
2023-05-05T13:27:24.952Z,9.38
2023-05-05T13:29:55.682Z,10.25
2023-05-05T13:32:29.136Z,11.32
2023-05-05T13:34:59.925Z,8.35
2023-05-05T13:37:30.939Z,36.80
2023-05-05T13:40:01.730Z,17.85
2023-05-05T13:42:34.473Z,23.67
2023-05-05T13:45:05.855Z,19.27
2023-05-05T13:47:39.624Z,22.25
2023-05-05T13:50:11.655Z,12.70
2023-05-05T13:52:42.612Z,44.38
2023-05-05T13:55:13.561Z,10.15
2023-05-05T13:57:46.813Z,10.35
2023-05-05T14:00:19.350Z,12.65
2023-05-05T14:02:52.845Z,19.13
2023-05-05T14:05:23.623Z,10.75
2023-05-05T14:07:54.552Z,19.17
2023-05-05T14:10:26.546Z,20.30
2023-05-05T14:12:57.625Z,12.55
2023-05-05T14:15:28.444Z,12.25
2023-05-05T14:18:02.631Z,13.77
2023-05-05T14:20:33.376Z,8.55
2023-05-05T14:23:04.460Z,11.68
2023-05-05T14:25:35.478Z,15.02
2023-05-05T14:28:06.407Z,19.17
2023-05-05T14:30:37.197Z,16.02
2023-05-05T14:33:10.595Z,18.00
2023-05-05T14:35:41.429Z,13.77
2023-05-05T14:38:12.471Z,15.85
2023-05-05T14:40:43.310Z,15.05
2023-05-05T14:43:13.994Z,14.35
2023-05-05T14:45:44.733Z,12.85
2023-05-05T14:48:18.499Z,15.63
2023-05-05T14:50:50.230Z,16.05
2023-05-05T14:53:22.117Z,16.55
2023-05-05T14:55:52.782Z,15.93
2023-05-05T14:58:24.906Z,18.58
2023-05-05T15:00:55.911Z,21.08
2023-05-05T15:03:30.136Z,17.23
2023-05-05T15:06:01.450Z,13.95
2023-05-05T15:08:32.116Z,17.50
2023-05-05T15:11:02.938Z,15.93
2023-05-05T15:13:33.863Z,20.13
2023-05-05T15:16:04.624Z,17.08
2023-05-05T15:18:38.704Z,16.00
2023-05-05T15:21:09.671Z,19.33
2023-05-05T15:23:40.441Z,17.95
2023-05-05T15:26:14.248Z,19.63
2023-05-05T15:28:45.036Z,22.15
2023-05-05T15:31:15.979Z,21.23
2023-05-05T15:33:51.772Z,22.90
2023-05-05T15:36:24.470Z,22.45
2023-05-05T15:38:55.297Z,32.40
2023-05-05T15:41:27.545Z,28.90
2023-05-05T15:43:58.332Z,34.17
2023-05-05T15:46:29.262Z,38.83
2023-05-05T15:49:02.713Z,32.60
2023-05-05T15:51:33.530Z,28.88
2023-05-05T15:54:04.235Z,46.33
2023-05-05T15:56:35.936Z,27.58
2023-05-05T15:59:06.920Z,27.30
2023-05-05T16:01:38.816Z,31.15
2023-05-05T16:04:12.593Z,37.55
2023-05-05T16:06:43.447Z,34.90
2023-05-05T16:09:14.123Z,36.38
2023-05-05T16:11:44.873Z,33.42
2023-05-05T16:14:15.570Z,45.20
2023-05-05T16:16:46.341Z,44.70
2023-05-05T16:19:19.802Z,34.75
2023-05-05T16:21:50.675Z,36.17
2023-05-05T16:24:21.598Z,32.08
2023-05-05T16:26:52.552Z,27.73
2023-05-05T16:29:23.385Z,26.17
2023-05-05T16:31:54.323Z,32.60
2023-05-05T16:34:27.796Z,25.65
2023-05-05T16:36:58.718Z,35.22
2023-05-05T16:39:29.538Z,31.55
2023-05-05T16:42:00.326Z,33.17
2023-05-05T16:44:31.110Z,30.08
2023-05-05T16:47:01.840Z,31.90
2023-05-05T16:49:36.677Z,32.78
2023-05-05T16:52:07.923Z,30.23
2023-05-05T16:54:38.643Z,24.60
2023-05-05T16:57:09.467Z,31.33
2023-05-05T16:59:41.995Z,37.40
2023-05-05T17:02:13.174Z,29.70
2023-05-05T17:04:46.517Z,23.00
2023-05-05T17:07:17.328Z,21.50
2023-05-05T17:09:48.086Z,24.67
2023-05-05T17:12:18.966Z,21.13
2023-05-05T17:14:49.790Z,25.58
2023-05-05T17:17:21.047Z,22.15
2023-05-05T17:19:54.664Z,28.00
2023-05-05T17:22:25.806Z,25.13
2023-05-05T17:24:57.427Z,29.40
2023-05-05T17:27:30.822Z,28.08
2023-05-05T17:30:02.076Z,27.23
2023-05-05T17:32:36.211Z,31.20
2023-05-05T17:35:10.950Z,26.27
2023-05-05T17:37:42.561Z,34.88
2023-05-05T17:40:16.803Z,26.98
2023-05-05T17:42:48.242Z,32.97
2023-05-05T17:45:19.810Z,25.55
2023-05-05T17:47:51.697Z,26.48
2023-05-05T17:50:25.699Z,29.77
2023-05-05T17:52:59.988Z,32.03
2023-05-05T17:55:31.493Z,37.83
2023-05-05T17:58:02.461Z,33.85
2023-05-05T18:00:33.273Z,26.70
2023-05-05T18:03:04.582Z,22.58
2023-05-05T18:05:38.307Z,37.85
2023-05-05T18:08:09.587Z,26.52
2023-05-05T18:10:40.432Z,23.23
2023-05-05T18:13:11.309Z,25.13
2023-05-05T18:15:42.861Z,35.22
2023-05-05T18:18:13.922Z,31.17
2023-05-05T18:20:47.286Z,33.10
2023-05-05T18:23:18.219Z,33.85
2023-05-05T18:25:48.940Z,33.30
2023-05-05T18:28:20.629Z,31.00
2023-05-05T18:30:51.600Z,28.85
2023-05-05T18:33:22.359Z,31.13
2023-05-05T18:35:56.777Z,26.75
2023-05-05T18:38:27.617Z,24.17
2023-05-05T18:40:58.384Z,26.23
2023-05-05T18:43:29.237Z,27.35
2023-05-05T18:45:59.998Z,29.38
2023-05-05T18:48:30.925Z,23.85
2023-05-05T18:51:07.918Z,21.08
2023-05-05T18:53:38.834Z,21.17
2023-05-05T18:56:10.405Z,35.53
2023-05-05T18:58:41.183Z,31.98
2023-05-05T19:01:12.000Z,26.75
2023-05-05T19:03:42.928Z,30.25
2023-05-05T19:06:16.374Z,29.70
2023-05-05T19:08:47.427Z,33.78
2023-05-05T19:11:18.341Z,23.88
2023-05-05T19:13:49.278Z,28.13
2023-05-05T19:16:20.217Z,23.52
2023-05-05T19:18:51.140Z,22.83
2023-05-05T19:21:24.540Z,21.25
2023-05-05T19:23:55.400Z,20.40
2023-05-05T19:26:26.946Z,24.20
2023-05-05T19:28:57.865Z,26.70
2023-05-05T19:31:31.256Z,35.38
2023-05-05T19:34:08.776Z,28.33
2023-05-05T19:36:42.100Z,30.63
2023-05-05T19:39:15.319Z,22.60
2023-05-05T19:41:46.821Z,20.95
2023-05-05T19:44:17.689Z,23.60
2023-05-05T19:46:48.474Z,20.20
2023-05-05T19:49:19.417Z,22.27
2023-05-05T19:51:53.220Z,25.63
2023-05-05T19:54:24.853Z,22.83
2023-05-05T19:56:57.184Z,22.00
2023-05-05T19:59:28.260Z,20.75
2023-05-05T20:01:59.272Z,20.45
2023-05-05T20:04:30.355Z,21.88
2023-05-05T20:07:04.067Z,21.60
2023-05-05T20:09:34.886Z,20.23
2023-05-05T20:12:06.094Z,21.10
2023-05-05T20:14:37.385Z,21.77
2023-05-05T20:17:08.151Z,22.50
2023-05-05T20:19:38.989Z,20.02
2023-05-05T20:22:12.366Z,21.63
2023-05-05T20:24:43.311Z,26.25
2023-05-05T20:27:14.127Z,20.08
2023-05-05T20:29:45.085Z,20.42
2023-05-05T20:32:16.117Z,19.75
2023-05-05T20:34:46.804Z,18.95
2023-05-05T20:37:22.165Z,22.77
2023-05-05T20:39:54.039Z,20.45
2023-05-05T20:42:25.881Z,23.27
2023-05-05T20:44:56.685Z,21.52
2023-05-05T20:47:27.482Z,22.17
2023-05-05T20:49:58.234Z,22.05
2023-05-05T20:52:31.653Z,21.13
2023-05-05T20:55:02.524Z,25.60
2023-05-05T20:57:36.000Z,22.13
2023-05-05T21:00:07.571Z,23.67
2023-05-05T21:02:40.189Z,25.88
2023-05-05T21:05:12.165Z,20.25
2023-05-05T21:07:45.771Z,20.75
2023-05-05T21:10:16.526Z,20.88
2023-05-05T21:12:47.258Z,19.02
2023-05-05T21:15:18.243Z,19.83
2023-05-05T21:17:48.985Z,21.70
2023-05-05T21:20:20.207Z,18.15
2023-05-05T21:22:53.638Z,19.40
2023-05-05T21:25:25.308Z,18.55
2023-05-05T21:27:56.463Z,31.75
2023-05-05T21:30:27.389Z,26.90
2023-05-05T21:32:58.286Z,22.00
2023-05-05T21:35:29.031Z,20.58
2023-05-05T21:38:02.408Z,20.60
2023-05-05T21:40:33.191Z,22.42
2023-05-05T21:43:03.931Z,25.63
2023-05-05T21:45:35.016Z,24.15
2023-05-05T21:48:05.904Z,24.05
2023-05-05T21:50:37.462Z,22.83
2023-05-05T21:53:10.803Z,20.25
2023-05-05T21:55:48.352Z,21.02
2023-05-05T21:58:19.558Z,29.92
2023-05-05T22:00:52.714Z,22.67
2023-05-05T22:03:24.720Z,21.30
2023-05-05T22:05:55.572Z,21.70
2023-05-05T22:08:28.922Z,24.40
2023-05-05T22:10:59.787Z,20.45
2023-05-05T22:13:30.399Z,20.30
2023-05-05T22:16:01.234Z,18.30
2023-05-05T22:18:31.930Z,18.92
2023-05-05T22:21:02.686Z,22.23
2023-05-05T22:23:37.536Z,19.60
2023-05-05T22:26:08.777Z,18.83
2023-05-05T22:28:39.566Z,17.35
2023-05-05T22:31:10.376Z,16.63
2023-05-05T22:33:41.302Z,18.35
2023-05-05T22:36:13.384Z,19.00
2023-05-05T22:38:46.706Z,18.83
2023-05-05T22:41:17.439Z,18.98
2023-05-05T22:43:49.473Z,23.10
2023-05-05T22:46:20.255Z,20.58
2023-05-05T22:48:51.032Z,18.65
2023-05-05T22:51:22.095Z,17.55
2023-05-05T22:53:55.410Z,18.92
2023-05-05T22:56:26.291Z,17.88
2023-05-05T22:58:57.050Z,19.00
2023-05-05T23:01:27.934Z,16.30
2023-05-05T23:03:59.433Z,21.77
2023-05-05T23:06:30.672Z,17.67
2023-05-05T23:09:03.924Z,19.45
2023-05-05T23:11:34.653Z,17.27
2023-05-05T23:14:05.338Z,16.20
2023-05-05T23:16:36.280Z,15.63
2023-05-05T23:19:07.087Z,15.25
2023-05-05T23:21:49.303Z,13.82
2023-05-05T23:24:26.454Z,15.80
2023-05-05T23:26:58.509Z,14.38
2023-05-05T23:29:29.563Z,16.02
2023-05-05T23:32:01.070Z,15.18
2023-05-05T23:34:31.900Z,16.33
2023-05-05T23:37:04.611Z,14.68
2023-05-05T23:39:39.662Z,17.70
2023-05-05T23:42:10.469Z,14.55
2023-05-05T23:44:41.188Z,16.58
2023-05-05T23:47:12.010Z,13.63
2023-05-05T23:49:42.780Z,14.43
2023-05-05T23:52:14.528Z,14.30
2023-05-05T23:54:48.457Z,17.33
2023-05-05T23:57:19.245Z,14.93
2023-05-05T23:59:50.165Z,14.40
